createdAt,value
2019-05-22T00:00:31.936Z,33.53
2019-05-22T00:03:04.599Z,32.30
2019-05-22T00:05:35.974Z,31.90
2019-05-22T00:08:09.738Z,32.37
2019-05-22T00:10:44.386Z,31.40
2019-05-22T00:13:18.853Z,29.67
2019-05-22T00:15:51.746Z,29.90
2019-05-22T00:18:22.725Z,30.00
2019-05-22T00:20:54.688Z,28.90
2019-05-22T00:23:27.148Z,28.53
2019-05-22T00:25:58.350Z,26.90
2019-05-22T00:28:31.631Z,25.47
2019-05-22T00:31:04.397Z,23.63
2019-05-22T00:33:37.198Z,23.20
2019-05-22T00:36:10.598Z,20.47
2019-05-22T00:38:41.776Z,16.77
2019-05-22T00:41:12.885Z,18.07
2019-05-22T00:43:45.060Z,16.90
2019-05-22T00:46:17.027Z,15.90
2019-05-22T00:48:48.418Z,15.67
2019-05-22T00:51:36.833Z,15.13
2019-05-22T00:54:12.594Z,16.27
2019-05-22T00:56:54.192Z,15.93
2019-05-22T00:59:43.070Z,16.63
2019-05-22T01:02:16.183Z,15.93
2019-05-22T01:04:48.718Z,16.70
2019-05-22T01:07:21.360Z,17.60
2019-05-22T01:10:01.605Z,17.63
2019-05-22T01:12:37.156Z,17.60
2019-05-22T01:15:09.144Z,18.13
2019-05-22T01:17:42.234Z,17.47
2019-05-22T01:20:15.787Z,17.63
2019-05-22T01:22:49.807Z,17.13
2019-05-22T01:25:24.990Z,16.77
2019-05-22T01:27:58.653Z,16.63
2019-05-22T01:30:40.480Z,17.03
2019-05-22T01:33:23.558Z,16.53
2019-05-22T01:36:03.795Z,15.53
2019-05-22T01:38:38.975Z,15.07
2019-05-22T01:41:19.208Z,15.47
2019-05-22T01:43:51.819Z,14.73
2019-05-22T01:46:22.890Z,14.10
2019-05-22T01:48:56.924Z,13.67
2019-05-22T01:51:28.220Z,12.70
2019-05-22T01:54:00.742Z,12.50
2019-05-22T01:56:34.353Z,12.60
2019-05-22T01:59:05.770Z,11.90
2019-05-22T02:01:38.235Z,11.17
2019-05-22T02:04:09.833Z,11.47
2019-05-22T02:06:41.984Z,10.47
2019-05-22T02:09:31.244Z,11.93
2019-05-22T02:12:27.774Z,11.90
2019-05-22T02:14:59.250Z,12.10
2019-05-22T02:17:35.952Z,11.60
2019-05-22T02:20:08.951Z,11.03
2019-05-22T02:22:41.054Z,10.63
2019-05-22T02:25:13.316Z,10.70
2019-05-22T02:27:44.932Z,9.90
2019-05-22T02:30:18.017Z,10.03
2019-05-22T02:32:49.330Z,9.60
2019-05-22T02:35:21.844Z,9.97
2019-05-22T02:37:52.849Z,10.73
2019-05-22T02:40:34.146Z,10.77
2019-05-22T02:43:07.218Z,10.83
2019-05-22T02:45:38.196Z,11.23
2019-05-22T02:48:11.812Z,11.90
2019-05-22T02:50:42.581Z,11.57
2019-05-22T02:53:14.978Z,11.90
2019-05-22T02:55:48.095Z,11.90
2019-05-22T02:58:21.656Z,11.57
2019-05-22T03:00:58.629Z,11.53
2019-05-22T03:03:31.071Z,11.83
2019-05-22T03:06:06.009Z,12.23
2019-05-22T03:09:00.050Z,11.93
2019-05-22T03:11:37.716Z,11.97
2019-05-22T03:14:09.653Z,12.20
2019-05-22T03:16:58.297Z,11.97
2019-05-22T03:19:42.397Z,12.30
2019-05-22T03:22:26.871Z,12.27
2019-05-22T03:25:02.441Z,12.67
2019-05-22T03:27:50.476Z,13.60
2019-05-22T03:30:37.021Z,13.97
2019-05-22T03:33:08.608Z,13.80
2019-05-22T03:35:46.214Z,14.10
2019-05-22T03:38:19.338Z,14.07
2019-05-22T03:40:52.768Z,14.33
2019-05-22T03:43:28.178Z,14.97
2019-05-22T03:46:02.956Z,15.13
2019-05-22T03:48:36.729Z,15.17
2019-05-22T03:51:12.557Z,14.37
2019-05-22T03:53:44.094Z,15.07
2019-05-22T03:56:18.096Z,13.90
2019-05-22T03:58:48.682Z,13.83
2019-05-22T04:01:22.186Z,14.67
2019-05-22T04:03:53.383Z,13.53
2019-05-22T04:06:25.500Z,14.00
2019-05-22T04:08:58.066Z,15.43
2019-05-22T04:11:32.494Z,14.10
2019-05-22T04:14:04.121Z,13.83
2019-05-22T04:16:35.955Z,13.57
2019-05-22T04:19:07.021Z,12.47
2019-05-22T04:21:38.307Z,11.27
2019-05-22T04:24:10.055Z,12.07
2019-05-22T04:26:41.652Z,12.10
2019-05-22T04:29:14.679Z,11.53
2019-05-22T04:31:52.214Z,12.27
2019-05-22T04:34:23.684Z,11.60
2019-05-22T04:36:55.724Z,12.30
2019-05-22T04:39:27.908Z,12.77
2019-05-22T04:41:59.042Z,11.97
2019-05-22T04:44:29.755Z,11.67
2019-05-22T04:47:01.861Z,12.07
2019-05-22T04:49:32.777Z,12.60
2019-05-22T04:52:04.945Z,13.47
2019-05-22T04:54:35.960Z,12.77
2019-05-22T04:57:07.947Z,12.20
2019-05-22T04:59:39.407Z,11.43
2019-05-22T05:02:10.858Z,10.07
2019-05-22T05:04:42.814Z,8.73
2019-05-22T05:07:13.480Z,9.97
2019-05-22T05:09:46.308Z,9.10
2019-05-22T05:12:17.465Z,10.10
2019-05-22T05:14:48.418Z,10.03
2019-05-22T05:17:21.440Z,10.60
2019-05-22T05:19:51.523Z,9.37
2019-05-22T05:22:27.915Z,9.83
2019-05-22T05:24:58.901Z,8.87
2019-05-22T05:27:30.281Z,8.90
2019-05-22T05:30:01.427Z,7.90
2019-05-22T05:32:32.689Z,8.50
2019-05-22T05:35:06.109Z,7.73
2019-05-22T05:37:37.005Z,8.90
2019-05-22T05:40:10.859Z,8.87
2019-05-22T05:42:41.773Z,8.93
2019-05-22T05:45:13.800Z,9.27
2019-05-22T05:47:45.597Z,9.43
2019-05-22T05:50:18.557Z,8.93
2019-05-22T05:52:49.816Z,9.53
2019-05-22T05:55:22.308Z,9.07
2019-05-22T05:57:56.930Z,9.30
2019-05-22T06:00:32.451Z,9.40
2019-05-22T06:03:22.994Z,10.10
2019-05-22T06:05:54.013Z,10.13
2019-05-22T06:08:26.446Z,9.73
2019-05-22T06:11:21.924Z,11.07
2019-05-22T06:13:52.777Z,9.20
2019-05-22T06:16:26.972Z,9.67
2019-05-22T06:18:57.910Z,9.77
2019-05-22T06:21:28.922Z,10.13
2019-05-22T06:24:04.055Z,9.87
2019-05-22T06:26:49.104Z,10.37
2019-05-22T06:29:22.530Z,10.50
2019-05-22T06:32:07.358Z,9.10
2019-05-22T06:34:38.478Z,10.10
2019-05-22T06:37:15.404Z,9.83
2019-05-22T06:39:46.872Z,9.77
2019-05-22T06:42:17.822Z,10.63
2019-05-22T06:44:48.516Z,10.50
2019-05-22T06:47:21.119Z,10.37
2019-05-22T06:49:53.788Z,11.23
2019-05-22T06:52:25.343Z,11.40
2019-05-22T06:54:56.807Z,11.70
2019-05-22T06:57:30.897Z,11.63
2019-05-22T07:00:14.589Z,10.17
2019-05-22T07:02:37.908Z,9.17
2019-05-22T07:05:10.192Z,8.90
2019-05-22T07:07:42.886Z,9.93
2019-05-22T07:10:14.820Z,11.50
2019-05-22T07:12:50.271Z,10.37
2019-05-22T07:15:26.025Z,10.13
2019-05-22T07:17:57.302Z,11.10
2019-05-22T07:20:31.067Z,8.00
2019-05-22T07:23:04.255Z,8.37
2019-05-22T07:25:36.649Z,7.37
2019-05-22T07:28:07.467Z,7.53
2019-05-22T07:30:39.123Z,7.87
2019-05-22T07:33:10.377Z,7.17
2019-05-22T07:36:04.818Z,7.33
2019-05-22T07:38:15.979Z,7.63
2019-05-22T07:40:50.363Z,7.33
2019-05-22T07:43:22.325Z,7.23
2019-05-22T07:45:57.270Z,7.10
2019-05-22T07:48:29.377Z,6.67
2019-05-22T07:51:01.347Z,7.97
2019-05-22T07:53:32.332Z,7.30
2019-05-22T07:56:07.878Z,6.53
2019-05-22T07:58:39.012Z,6.47
2019-05-22T08:01:10.050Z,7.23
2019-05-22T08:03:42.840Z,6.60
2019-05-22T08:06:14.286Z,6.97
2019-05-22T08:08:46.359Z,6.57
2019-05-22T08:11:17.600Z,6.33
2019-05-22T08:13:49.379Z,7.00
2019-05-22T08:16:20.402Z,5.90
2019-05-22T08:18:52.997Z,6.30
2019-05-22T08:21:24.437Z,6.60
2019-05-22T08:23:56.067Z,6.60
2019-05-22T08:26:29.977Z,6.70
2019-05-22T08:29:02.038Z,6.53
2019-05-22T08:31:34.081Z,6.97
2019-05-22T08:34:07.420Z,6.63
2019-05-22T08:36:40.073Z,6.30
2019-05-22T08:39:11.966Z,7.03
2019-05-22T08:41:44.410Z,6.90
2019-05-22T08:44:19.974Z,7.40
2019-05-22T08:46:50.919Z,7.70
2019-05-22T08:49:22.225Z,8.23
2019-05-22T08:51:54.952Z,7.40
2019-05-22T08:54:26.800Z,8.30
2019-05-22T08:57:01.918Z,7.97
2019-05-22T08:59:32.991Z,8.13
2019-05-22T09:02:05.190Z,8.00
2019-05-22T09:04:35.691Z,8.13
2019-05-22T09:07:06.696Z,8.20
2019-05-22T09:09:46.672Z,7.17
2019-05-22T09:12:17.494Z,7.43
2019-05-22T09:14:50.218Z,7.13
2019-05-22T09:17:21.640Z,8.13
2019-05-22T09:19:55.281Z,7.63
2019-05-22T09:22:39.371Z,7.43
2019-05-22T09:25:00.879Z,8.07
2019-05-22T09:27:31.870Z,7.70
2019-05-22T09:30:02.706Z,7.93
2019-05-22T09:32:35.151Z,7.73
2019-05-22T09:35:07.270Z,7.40
2019-05-22T09:37:38.695Z,7.70
2019-05-22T09:40:09.243Z,6.57
2019-05-22T09:42:40.467Z,7.83
2019-05-22T09:45:12.229Z,6.73
2019-05-22T09:47:42.733Z,6.90
2019-05-22T09:50:15.231Z,6.63
2019-05-22T09:52:56.783Z,7.33
2019-05-22T09:55:21.015Z,6.97
2019-05-22T09:57:53.667Z,6.63
2019-05-22T10:00:24.532Z,6.50
2019-05-22T10:02:55.453Z,6.77
2019-05-22T10:05:26.511Z,7.23
2019-05-22T10:08:01.563Z,5.60
2019-05-22T10:10:33.390Z,6.93
2019-05-22T10:13:05.557Z,6.47
2019-05-22T10:15:36.816Z,7.20
2019-05-22T10:18:08.335Z,6.73
2019-05-22T10:20:39.710Z,6.80
2019-05-22T10:23:16.015Z,6.70
2019-05-22T10:25:48.814Z,6.27
2019-05-22T10:28:20.015Z,6.57
2019-05-22T10:30:51.740Z,6.17
2019-05-22T10:33:23.527Z,6.47
2019-05-22T10:35:59.165Z,6.63
2019-05-22T10:38:30.109Z,6.70
2019-05-22T10:41:00.931Z,6.57
2019-05-22T10:43:31.873Z,6.67
2019-05-22T10:46:03.192Z,6.87
2019-05-22T10:48:40.194Z,6.50
2019-05-22T10:51:11.658Z,6.67
2019-05-22T10:53:42.613Z,7.67
2019-05-22T10:56:13.452Z,7.20
2019-05-22T10:58:44.065Z,7.37
2019-05-22T11:01:15.503Z,7.50
2019-05-22T11:03:46.935Z,7.63
2019-05-22T11:06:19.133Z,8.20
2019-05-22T11:08:49.962Z,9.30
2019-05-22T11:11:21.266Z,8.97
2019-05-22T11:14:01.501Z,8.10
2019-05-22T11:16:26.370Z,8.90
2019-05-22T11:18:58.623Z,9.50
2019-05-22T11:21:29.687Z,9.07
2019-05-22T11:24:00.777Z,10.23
2019-05-22T11:26:33.314Z,9.90
2019-05-22T11:29:04.904Z,10.27
2019-05-22T11:31:36.305Z,10.43
2019-05-22T11:34:07.852Z,10.60
2019-05-22T11:36:39.605Z,11.47
2019-05-22T11:39:13.563Z,11.70
2019-05-22T11:41:44.419Z,12.23
2019-05-22T11:44:15.378Z,13.07
2019-05-22T11:46:47.761Z,13.07
2019-05-22T11:49:18.601Z,13.40
2019-05-22T11:51:51.695Z,13.83
2019-05-22T11:54:22.221Z,14.00
2019-05-22T11:56:52.691Z,13.63
2019-05-22T11:59:24.939Z,14.17
2019-05-22T12:01:55.957Z,14.53
2019-05-22T12:04:44.388Z,14.70
2019-05-22T12:07:02.753Z,14.47
2019-05-22T12:09:36.545Z,15.73
2019-05-22T12:12:08.555Z,15.13
2019-05-22T12:14:39.491Z,16.50
2019-05-22T12:17:11.850Z,17.80
2019-05-22T12:19:43.204Z,19.30
2019-05-22T12:22:14.187Z,16.30
2019-05-22T12:24:45.502Z,15.97
2019-05-22T12:27:16.750Z,18.50
2019-05-22T12:29:48.386Z,16.93
2019-05-22T12:32:21.779Z,17.80
2019-05-22T12:34:56.117Z,17.13
2019-05-22T12:37:29.417Z,17.10
2019-05-22T12:40:02.205Z,16.77
2019-05-22T12:42:36.801Z,16.80
2019-05-22T12:45:10.081Z,16.93
2019-05-22T12:47:43.563Z,17.20
2019-05-22T12:50:16.917Z,16.33
2019-05-22T12:52:50.159Z,17.33
2019-05-22T12:55:21.255Z,16.67
2019-05-22T12:57:52.543Z,16.83
2019-05-22T13:00:29.917Z,16.47
2019-05-22T13:03:03.025Z,17.57
2019-05-22T13:05:37.402Z,16.83
2019-05-22T13:08:09.354Z,17.40
2019-05-22T13:10:40.857Z,16.83
2019-05-22T13:13:13.089Z,16.93
2019-05-22T13:15:45.720Z,16.80
2019-05-22T13:18:21.392Z,17.00
2019-05-22T13:20:53.958Z,17.37
2019-05-22T13:23:29.429Z,17.87
2019-05-22T13:26:03.224Z,18.43
2019-05-22T13:28:37.958Z,17.50
2019-05-22T13:31:13.076Z,17.70
2019-05-22T13:33:46.958Z,19.63
2019-05-22T13:36:20.092Z,18.43
2019-05-22T13:38:51.884Z,18.63
2019-05-22T13:41:23.303Z,18.43
2019-05-22T13:43:55.037Z,19.27
2019-05-22T13:46:26.463Z,19.77
2019-05-22T13:48:57.426Z,20.30
2019-05-22T13:51:28.463Z,19.57
2019-05-22T13:53:59.982Z,19.90
2019-05-22T13:56:31.475Z,20.17
2019-05-22T13:59:02.523Z,20.33
2019-05-22T14:01:33.354Z,20.20
2019-05-22T14:04:04.613Z,20.87
2019-05-22T14:06:35.933Z,20.70
2019-05-22T14:09:10.126Z,20.67
2019-05-22T14:11:41.556Z,20.40
2019-05-22T14:14:13.270Z,19.93
2019-05-22T14:16:49.083Z,18.77
2019-05-22T14:19:17.628Z,19.50
2019-05-22T14:21:51.801Z,19.63
2019-05-22T14:24:21.369Z,19.40
2019-05-22T14:26:52.388Z,18.93
2019-05-22T14:29:23.960Z,18.60
2019-05-22T14:31:55.148Z,17.77
2019-05-22T14:34:26.920Z,19.63
2019-05-22T14:36:57.874Z,17.17
2019-05-22T14:39:30.053Z,18.47
2019-05-22T14:42:01.191Z,18.17
2019-05-22T14:44:34.131Z,19.77
2019-05-22T14:47:14.089Z,17.73
2019-05-22T14:49:37.571Z,18.57
2019-05-22T14:52:08.623Z,18.60
2019-05-22T14:54:39.495Z,16.87
2019-05-22T14:57:11.367Z,17.23
2019-05-22T14:59:41.979Z,17.37
2019-05-22T15:02:12.895Z,16.73
2019-05-22T15:04:44.060Z,17.30
2019-05-22T15:07:14.971Z,16.50
2019-05-22T15:09:45.843Z,16.23
2019-05-22T15:12:16.896Z,17.07
2019-05-22T15:14:47.783Z,16.07
2019-05-22T15:17:31.892Z,16.77
2019-05-22T15:19:51.847Z,16.03
2019-05-22T15:22:22.763Z,15.63
2019-05-22T15:24:53.930Z,16.00
2019-05-22T15:27:25.552Z,14.80
2019-05-22T15:29:56.727Z,15.17
2019-05-22T15:32:27.639Z,14.03
2019-05-22T15:34:58.805Z,14.70
2019-05-22T15:37:30.265Z,13.37
2019-05-22T15:40:02.836Z,14.13
2019-05-22T15:42:40.243Z,15.20
2019-05-22T15:45:29.646Z,15.23
2019-05-22T15:48:04.875Z,15.10
2019-05-22T15:50:37.718Z,14.47
2019-05-22T15:53:15.045Z,14.50
2019-05-22T15:55:45.612Z,14.40
2019-05-22T15:58:18.525Z,14.97
2019-05-22T16:00:50.910Z,14.20
2019-05-22T16:03:25.421Z,15.03
2019-05-22T16:05:56.815Z,14.47
2019-05-22T16:08:29.344Z,14.60
2019-05-22T16:11:02.203Z,14.00
2019-05-22T16:13:35.088Z,15.03
2019-05-22T16:16:06.758Z,13.83
2019-05-22T16:18:39.173Z,13.43
2019-05-22T16:21:11.653Z,14.10
2019-05-22T16:23:43.773Z,13.70
2019-05-22T16:26:15.971Z,13.57
2019-05-22T16:28:48.313Z,12.97
2019-05-22T16:31:19.963Z,12.23
2019-05-22T16:33:53.528Z,13.07
2019-05-22T16:36:25.373Z,11.70
2019-05-22T16:38:58.152Z,11.73
2019-05-22T16:41:29.877Z,12.03
2019-05-22T16:44:01.220Z,11.30
2019-05-22T16:46:32.877Z,11.57
2019-05-22T16:49:04.381Z,10.83
2019-05-22T16:51:36.205Z,10.77
2019-05-22T16:54:08.709Z,10.73
2019-05-22T16:56:41.035Z,10.00
2019-05-22T16:59:13.640Z,10.43
2019-05-22T17:01:58.645Z,9.97
2019-05-22T17:04:21.414Z,9.63
2019-05-22T17:06:52.726Z,9.30
2019-05-22T17:09:24.055Z,9.10
2019-05-22T17:11:55.796Z,10.13
2019-05-22T17:14:28.279Z,8.80
2019-05-22T17:16:58.756Z,8.70
2019-05-22T17:19:29.876Z,8.27
2019-05-22T17:22:01.197Z,8.70
2019-05-22T17:24:34.162Z,9.03
2019-05-22T17:27:06.448Z,8.30
2019-05-22T17:29:37.311Z,8.40
2019-05-22T17:32:08.336Z,8.90
2019-05-22T17:34:40.103Z,8.80
2019-05-22T17:37:14.553Z,9.07
2019-05-22T17:39:47.121Z,10.20
2019-05-22T17:42:20.343Z,9.80
2019-05-22T17:44:53.192Z,9.93
2019-05-22T17:47:26.420Z,9.73
2019-05-22T17:49:58.317Z,9.97
2019-05-22T17:52:29.647Z,9.80
2019-05-22T17:55:00.620Z,9.30
2019-05-22T17:57:32.173Z,9.40
2019-05-22T18:00:05.165Z,9.00
2019-05-22T18:02:36.937Z,8.37
2019-05-22T18:05:10.107Z,8.60
2019-05-22T18:07:42.050Z,8.63
2019-05-22T18:10:13.811Z,8.83
2019-05-22T18:12:44.640Z,8.87
2019-05-22T18:15:16.225Z,8.13
2019-05-22T18:17:47.137Z,8.00
2019-05-22T18:20:19.120Z,8.43
2019-05-22T18:22:50.143Z,7.80
2019-05-22T18:25:21.476Z,8.10
2019-05-22T18:27:52.669Z,7.30
2019-05-22T18:30:24.835Z,7.43
2019-05-22T18:32:55.738Z,8.20
2019-05-22T18:35:27.087Z,6.90
2019-05-22T18:37:59.348Z,7.00
2019-05-22T18:40:30.605Z,7.13
2019-05-22T18:43:01.530Z,7.73
2019-05-22T18:45:34.432Z,7.40
2019-05-22T18:48:07.115Z,6.77
2019-05-22T18:50:38.431Z,7.50
2019-05-22T18:53:09.680Z,7.30
2019-05-22T18:55:40.457Z,7.93
2019-05-22T18:58:11.588Z,7.20
2019-05-22T19:00:42.691Z,6.73
2019-05-22T19:03:14.091Z,6.87
2019-05-22T19:05:45.105Z,6.60
2019-05-22T19:08:15.970Z,6.73
2019-05-22T19:10:47.241Z,6.97
2019-05-22T19:13:18.141Z,6.40
2019-05-22T19:15:50.612Z,6.30
2019-05-22T19:18:21.946Z,6.13
2019-05-22T19:20:53.316Z,6.10
2019-05-22T19:23:24.799Z,6.33
2019-05-22T19:25:57.935Z,5.80
2019-05-22T19:28:42.983Z,6.23
2019-05-22T19:31:01.846Z,6.00
2019-05-22T19:33:32.370Z,5.90
2019-05-22T19:36:04.183Z,5.90
2019-05-22T19:38:35.299Z,5.37
2019-05-22T19:41:06.671Z,5.93
2019-05-22T19:43:37.675Z,5.50
2019-05-22T19:46:08.903Z,5.30
2019-05-22T19:48:40.216Z,6.00
2019-05-22T19:51:12.883Z,6.30
2019-05-22T19:53:43.657Z,6.13
2019-05-22T19:56:15.534Z,5.80
2019-05-22T19:58:46.866Z,5.63
2019-05-22T20:01:18.590Z,5.77
2019-05-22T20:03:51.798Z,5.23
2019-05-22T20:06:23.437Z,5.30
2019-05-22T20:08:54.972Z,5.33
2019-05-22T20:11:26.938Z,5.63
2019-05-22T20:13:58.648Z,5.60
2019-05-22T20:16:29.648Z,5.23
2019-05-22T20:19:00.892Z,5.53
2019-05-22T20:21:32.842Z,5.30
2019-05-22T20:24:04.383Z,5.20
2019-05-22T20:26:35.376Z,5.60
2019-05-22T20:29:07.643Z,5.73
2019-05-22T20:31:40.123Z,5.30
2019-05-22T20:34:11.184Z,5.27
2019-05-22T20:36:42.634Z,5.53
2019-05-22T20:39:15.171Z,5.67
2019-05-22T20:41:46.662Z,5.73
2019-05-22T20:44:20.004Z,5.93
2019-05-22T20:46:51.486Z,5.90
2019-05-22T20:49:23.867Z,5.50
2019-05-22T20:51:55.195Z,5.80
2019-05-22T20:54:29.034Z,5.47
2019-05-22T20:57:01.035Z,6.03
2019-05-22T20:59:32.442Z,5.27
2019-05-22T21:02:04.689Z,5.60
2019-05-22T21:04:37.136Z,5.33
2019-05-22T21:07:09.829Z,5.83
2019-05-22T21:09:41.024Z,5.27
2019-05-22T21:12:13.175Z,6.10
2019-05-22T21:14:43.774Z,5.57
2019-05-22T21:17:16.449Z,5.33
2019-05-22T21:19:49.234Z,5.37
2019-05-22T21:22:21.860Z,5.73
2019-05-22T21:24:55.447Z,6.40
2019-05-22T21:27:26.898Z,6.80
2019-05-22T21:29:58.563Z,5.63
2019-05-22T21:32:30.548Z,6.23
2019-05-22T21:35:01.487Z,5.87
2019-05-22T21:37:32.477Z,5.80
2019-05-22T21:40:05.303Z,5.70
2019-05-22T21:42:38.594Z,5.70
2019-05-22T21:45:11.455Z,5.63
2019-05-22T21:47:42.397Z,5.33
2019-05-22T21:50:13.987Z,5.50
2019-05-22T21:52:45.201Z,7.93
2019-05-22T21:55:27.241Z,5.93
2019-05-22T21:57:54.723Z,5.80
2019-05-22T22:00:42.589Z,6.03
2019-05-22T22:03:19.166Z,5.70
2019-05-22T22:05:50.676Z,6.17
2019-05-22T22:08:21.638Z,6.40
2019-05-22T22:10:54.462Z,6.30
2019-05-22T22:13:26.104Z,6.50
2019-05-22T22:16:00.025Z,6.40
2019-05-22T22:18:33.233Z,6.47
2019-05-22T22:21:05.030Z,6.37
2019-05-22T22:23:36.466Z,6.10
2019-05-22T22:26:24.055Z,5.93
2019-05-22T22:28:42.228Z,6.17
2019-05-22T22:31:15.347Z,6.23
2019-05-22T22:33:52.433Z,6.70
2019-05-22T22:36:24.072Z,6.70
2019-05-22T22:38:56.027Z,6.53
2019-05-22T22:41:27.170Z,7.40
2019-05-22T22:43:59.016Z,7.10
2019-05-22T22:46:39.580Z,6.53
2019-05-22T22:49:13.791Z,6.73
2019-05-22T22:51:46.690Z,6.33
2019-05-22T22:54:20.532Z,6.47
2019-05-22T22:56:51.638Z,6.17
2019-05-22T22:59:22.810Z,6.40
2019-05-22T23:01:56.701Z,5.73
2019-05-22T23:04:30.014Z,5.87
2019-05-22T23:07:03.336Z,5.97
2019-05-22T23:09:37.526Z,5.33
2019-05-22T23:12:09.862Z,5.80
2019-05-22T23:14:44.683Z,5.67
2019-05-22T23:17:17.322Z,5.20
2019-05-22T23:19:47.601Z,5.53
2019-05-22T23:22:18.101Z,5.47
2019-05-22T23:24:49.985Z,5.97
2019-05-22T23:27:21.326Z,5.33
2019-05-22T23:29:52.507Z,5.20
2019-05-22T23:32:24.579Z,5.87
2019-05-22T23:34:57.214Z,5.13
2019-05-22T23:37:28.994Z,5.70
2019-05-22T23:40:00.688Z,5.50
2019-05-22T23:42:35.264Z,5.33
2019-05-22T23:45:10.576Z,5.17
2019-05-22T23:47:59.289Z,5.60
2019-05-22T23:50:33.902Z,5.27
2019-05-22T23:53:05.842Z,5.33
2019-05-22T23:55:36.950Z,5.40
2019-05-22T23:58:10.337Z,5.40
